Time;durP1;ratioP1;P1;durP2;ratioP2;P2;SDS_P1;SDS_P2;PMS_P1;PMS_P2;Temp;Humidity;BMP_temperature;BMP_pressure;BME280_temperature;BME280_humidity;BME280_pressure;Samples;Min_cycle;Max_cycle;Signal;HPM_P1;HPM_P2
2021/07/08 00:00:35;;;;;;;;;6.75;5.00;;;;;24.05;40.91;101063.88;4945823;28;62004;-88
2021/07/08 00:03:01;;;;;;;;;6.00;6.00;;;;;24.15;40.44;101073.25;4956936;28;45899;-89
2021/07/08 00:05:27;;;;;;;;;4.25;4.00;;;;;24.16;40.08;101074.13;4945313;28;45412;-87
2021/07/08 00:07:53;;;;;;;;;5.25;5.00;;;;;24.14;41.42;101073.28;4943364;28;46735;-88
2021/07/08 00:10:23;;;;;;;;;3.75;3.75;;;;;24.16;40.45;101082.13;4941000;28;45567;-87
2021/07/08 00:12:49;;;;;;;;;7.00;6.75;;;;;24.15;40.68;101075.91;4954861;28;46092;-87
2021/07/08 00:15:17;;;;;;;;;6.00;6.00;;;;;24.11;41.12;101079.63;4958174;28;45402;-87
2021/07/08 00:17:42;;;;;;;;;6.75;5.50;;;;;24.08;41.18;101077.09;4935664;28;45411;-87
2021/07/08 00:20:09;;;;;;;;;6.00;6.00;;;;;24.04;40.98;101069.28;4948528;28;45590;-87
2021/07/08 00:22:35;;;;;;;;;6.00;6.00;;;;;24.07;41.48;101077.16;4919622;28;47296;-88
2021/07/08 00:25:00;;;;;;;;;6.00;6.00;;;;;24.05;41.52;101071.88;4936890;28;45317;-87
2021/07/08 00:27:26;;;;;;;;;5.00;5.00;;;;;24.04;41.81;101075.47;4933885;28;45358;-88
2021/07/08 00:29:51;;;;;;;;;7.75;6.00;;;;;24.04;41.19;101074.59;4950850;28;49366;-87
2021/07/08 00:32:16;;;;;;;;;7.00;6.50;;;;;24.02;41.40;101080.00;4931653;28;57838;-88
2021/07/08 00:34:42;;;;;;;;;7.00;6.00;;;;;24.00;41.28;101079.22;4942156;28;45475;-87
2021/07/08 00:37:08;;;;;;;;;5.75;5.75;;;;;24.02;41.76;101073.81;4943181;28;45619;-88
2021/07/08 00:39:33;;;;;;;;;7.00;7.00;;;;;24.01;42.17;101072.06;4940540;28;48123;-88
2021/07/08 00:41:58;;;;;;;;;7.25;5.50;;;;;24.00;41.47;101075.69;4951934;28;45422;-89
2021/07/08 00:44:24;;;;;;;;;7.25;7.25;;;;;23.97;41.92;101076.66;4938961;28;45489;-88
2021/07/08 00:46:49;;;;;;;;;7.00;6.00;;;;;23.95;41.65;101084.72;4934679;28;45355;-88
2021/07/08 00:49:16;;;;;;;;;7.00;7.00;;;;;23.94;42.16;101082.13;4939996;28;45599;-88
2021/07/08 00:51:41;;;;;;;;;8.00;6.25;;;;;23.92;42.29;101073.31;4954029;28;45464;-88
2021/07/08 00:54:08;;;;;;;;;7.75;6.75;;;;;23.92;41.47;101078.66;4954211;28;45441;-87
2021/07/08 00:56:37;;;;;;;;;7.00;5.25;;;;;23.92;41.70;101079.53;4952244;28;45440;-88
2021/07/08 00:59:06;;;;;;;;;5.25;5.25;;;;;23.92;42.44;101076.00;4947056;28;45469;-88
2021/07/08 01:01:32;;;;;;;;;6.00;6.00;;;;;23.89;42.58;101081.44;4955066;28;45277;-88
2021/07/08 01:03:58;;;;;;;;;5.00;5.00;;;;;23.85;42.26;101070.03;4935620;28;45332;-88
2021/07/08 01:06:28;;;;;;;;;6.25;6.00;;;;;23.79;42.87;101058.75;4931566;28;45441;-88
2021/07/08 01:09:00;;;;;;;;;8.00;5.25;;;;;23.82;42.17;101067.50;4925768;28;45564;-89
2021/07/08 01:11:27;;;;;;;;;6.75;6.75;;;;;23.80;42.40;101065.81;4937217;28;45401;-88
2021/07/08 01:13:52;;;;;;;;;6.50;6.00;;;;;23.79;43.00;101070.28;4949007;28;45482;-88
2021/07/08 01:16:18;;;;;;;;;8.00;7.00;;;;;23.83;42.77;101073.69;4955371;28;45395;-88
2021/07/08 01:18:43;;;;;;;;;5.00;5.00;;;;;23.85;42.74;101082.50;4956418;28;45576;-88
2021/07/08 01:21:19;;;;;;;;;7.00;5.50;;;;;23.78;43.07;101065.88;4951841;28;47126;-88
2021/07/08 01:23:45;;;;;;;;;5.00;5.00;;;;;23.78;43.32;101079.19;4951139;28;45468;-88
2021/07/08 01:26:10;;;;;;;;;8.75;7.00;;;;;23.81;42.66;101072.91;4940749;28;45794;-88
2021/07/08 01:28:36;;;;;;;;;6.00;4.25;;;;;23.81;43.10;101070.22;4937291;28;57826;-87
2021/07/08 01:31:01;;;;;;;;;6.75;5.50;;;;;23.81;42.87;101080.91;4928393;28;52237;-88
2021/07/08 01:33:27;;;;;;;;;5.25;5.25;;;;;23.77;43.10;101081.94;4935590;28;45393;-88
2021/07/08 01:35:52;;;;;;;;;6.50;6.00;;;;;23.79;42.89;101086.25;4943579;28;45333;-88
2021/07/08 01:38:17;;;;;;;;;6.25;6.25;;;;;23.78;43.13;101084.53;4933615;28;53168;-88
2021/07/08 01:40:43;;;;;;;;;5.00;5.00;;;;;23.79;43.17;101086.25;4942362;28;54666;-88
2021/07/08 01:43:08;;;;;;;;;6.00;6.00;;;;;23.80;42.88;101098.66;4942500;28;45243;-87
2021/07/08 01:45:34;;;;;;;;;6.50;6.25;;;;;23.77;43.14;101096.13;4938139;28;45454;-86
2021/07/08 01:47:59;;;;;;;;;6.25;6.00;;;;;23.74;43.38;101092.72;4942353;28;45375;-86
2021/07/08 01:50:25;;;;;;;;;4.75;4.75;;;;;23.74;43.17;101096.25;4948325;28;47125;-87
2021/07/08 01:52:50;;;;;;;;;7.00;6.50;;;;;23.73;43.37;101099.84;4956058;28;45296;-87
2021/07/08 01:55:15;;;;;;;;;6.25;5.00;;;;;23.72;43.35;101102.56;4959786;28;45351;-86
2021/07/08 01:57:42;;;;;;;;;5.50;5.50;;;;;23.72;43.90;101105.22;4944919;28;45539;-86
2021/07/08 02:00:09;;;;;;;;;7.25;4.00;;;;;23.69;43.76;101101.75;4935616;28;45387;-87
2021/07/08 02:02:34;;;;;;;;;7.00;7.00;;;;;23.68;43.60;101109.81;4956148;28;45475;-87
2021/07/08 02:05:00;;;;;;;;;7.00;6.25;;;;;23.69;43.65;101106.22;4934004;28;45507;-87
2021/07/08 02:07:25;;;;;;;;;5.00;5.00;;;;;23.72;43.04;101105.22;4945117;28;58884;-87
2021/07/08 02:09:50;;;;;;;;;6.25;6.00;;;;;23.67;43.53;101102.75;4944783;28;62850;-87
2021/07/08 02:12:16;;;;;;;;;6.00;6.00;;;;;23.67;43.88;101111.63;4936219;28;45880;-87
2021/07/08 02:14:41;;;;;;;;;5.00;5.00;;;;;23.60;43.38;101104.78;4942380;28;55633;-87
2021/07/08 02:17:07;;;;;;;;;6.75;6.50;;;;;23.62;44.12;101094.94;4954880;28;48546;-87
2021/07/08 02:19:32;;;;;;;;;7.50;4.00;;;;;23.63;43.52;101112.69;4942386;28;45448;-87
2021/07/08 02:21:57;;;;;;;;;6.00;6.00;;;;;23.62;43.78;101110.03;4966599;28;45442;-87
2021/07/08 02:24:23;;;;;;;;;5.50;5.50;;;;;23.64;44.40;101110.88;4951186;28;46262;-88
2021/07/08 02:26:48;;;;;;;;;6.25;6.25;;;;;23.63;44.00;101112.69;4943956;28;45389;-87
2021/07/08 02:29:14;;;;;;;;;5.50;5.50;;;;;23.63;44.02;101119.78;4946384;28;46106;-87
2021/07/08 02:31:39;;;;;;;;;6.75;6.75;;;;;23.64;44.17;101114.41;4944536;28;45360;-87
2021/07/08 02:34:05;;;;;;;;;8.25;6.75;;;;;23.66;44.34;101111.69;4946405;28;45313;-87
2021/07/08 02:36:30;;;;;;;;;9.25;7.75;;;;;23.69;44.18;101101.75;4948252;28;45307;-87
2021/07/08 02:38:56;;;;;;;;;7.00;6.50;;;;;23.71;43.88;101106.16;4924703;28;48932;-88
2021/07/08 02:41:21;;;;;;;;;5.25;5.25;;;;;23.64;44.50;101097.56;4961104;28;45138;-88
2021/07/08 02:43:46;;;;;;;;;7.00;7.00;;;;;23.59;44.27;101103.03;4956649;28;63498;-87
2021/07/08 02:46:12;;;;;;;;;8.00;7.00;;;;;23.59;44.50;101105.72;4958933;28;45227;-87
2021/07/08 02:48:37;;;;;;;;;7.25;5.00;;;;;23.56;44.63;101100.47;4955039;28;45305;-88
2021/07/08 02:51:03;;;;;;;;;8.00;6.25;;;;;23.57;43.99;101101.34;4953275;28;55001;-88
2021/07/08 02:53:28;;;;;;;;;7.75;6.00;;;;;23.54;44.32;101099.66;4952937;28;50457;-87
2021/07/08 02:55:53;;;;;;;;;6.75;5.50;;;;;23.53;44.45;101107.72;4950117;28;48076;-87
2021/07/08 02:58:19;;;;;;;;;5.50;5.50;;;;;23.46;45.03;101098.25;4943755;28;47049;-87
2021/07/08 03:00:46;;;;;;;;;5.50;5.00;;;;;23.49;45.03;101096.31;4954760;28;45444;-88
2021/07/08 03:03:11;;;;;;;;;5.50;5.50;;;;;23.54;44.71;101098.78;4941511;28;45482;-88
2021/07/08 03:05:37;;;;;;;;;5.75;4.75;;;;;23.52;44.63;101097.97;4952412;28;45459;-87
2021/07/08 03:08:02;;;;;;;;;5.25;5.00;;;;;23.49;44.79;101098.09;4944789;28;58809;-88
2021/07/08 03:10:28;;;;;;;;;5.50;4.75;;;;;23.45;44.66;101096.47;4936247;28;45339;-87
2021/07/08 03:12:54;;;;;;;;;6.50;6.00;;;;;23.44;44.58;101106.25;4955210;28;45262;-87
2021/07/08 03:15:20;;;;;;;;;5.25;5.00;;;;;23.45;44.61;101104.47;4960776;28;45468;-86
2021/07/08 03:17:45;;;;;;;;;4.75;4.75;;;;;23.42;44.73;101105.47;4953343;28;46076;-87
2021/07/08 03:20:22;;;;;;;;;8.00;7.00;;;;;23.39;45.08;101103.78;4939829;28;45686;-88
2021/07/08 03:22:47;;;;;;;;;5.00;5.00;;;;;23.44;44.62;101106.25;4950877;28;45417;-87
2021/07/08 03:25:13;;;;;;;;;5.75;5.75;;;;;23.46;45.05;101109.75;4955421;28;45304;-87
2021/07/08 03:27:39;;;;;;;;;5.50;4.75;;;;;23.42;45.15;101114.31;4948355;28;45381;-87
2021/07/08 03:30:06;;;;;;;;;8.25;7.50;;;;;23.42;45.18;101118.78;4953507;28;46086;-88
2021/07/08 03:32:32;;;;;;;;;5.00;5.00;;;;;23.44;44.84;101119.59;4931567;28;45447;-87
2021/07/08 03:34:57;;;;;;;;;7.75;6.75;;;;;23.43;44.23;101123.19;4950036;28;45527;-87
2021/07/08 03:37:23;;;;;;;;;8.00;5.00;;;;;23.42;44.96;101121.44;4941384;28;48136;-88
2021/07/08 03:39:48;;;;;;;;;5.75;5.75;;;;;23.33;44.71;101111.13;4949402;28;54877;-88
2021/07/08 03:42:14;;;;;;;;;6.25;5.25;;;;;23.31;44.78;101108.53;4958031;28;45334;-88
2021/07/08 03:44:39;;;;;;;;;6.75;4.25;;;;;23.27;45.00;101111.34;4959168;28;45234;-87
2021/07/08 03:47:04;;;;;;;;;6.00;6.00;;;;;23.29;44.73;101126.38;4957939;28;45270;-87
2021/07/08 03:49:30;;;;;;;;;6.50;6.00;;;;;23.30;44.91;101125.44;4939804;28;45457;-87
2021/07/08 03:51:55;;;;;;;;;5.25;4.50;;;;;23.32;45.31;101133.38;4933195;28;45432;-87
2021/07/08 03:54:21;;;;;;;;;6.00;5.00;;;;;23.30;45.42;101137.91;4940638;28;56186;-87
2021/07/08 03:56:46;;;;;;;;;7.00;5.25;;;;;23.32;45.55;101131.59;4957721;28;58327;-88
2021/07/08 03:59:11;;;;;;;;;6.00;6.00;;;;;23.36;45.40;101140.31;4947001;28;45335;-88
2021/07/08 04:01:38;;;;;;;;;5.00;5.00;;;;;23.34;45.24;101139.50;4949620;28;45267;-88
2021/07/08 04:04:03;;;;;;;;;5.00;4.25;;;;;23.36;45.50;101142.97;4944387;28;45596;-84
2021/07/08 04:06:29;;;;;;;;;7.00;5.75;;;;;23.37;45.30;101144.75;4942269;28;45551;-85
2021/07/08 04:08:54;;;;;;;;;5.00;5.00;;;;;23.36;44.81;101150.97;4938732;28;45485;-81
2021/07/08 04:11:20;;;;;;;;;7.50;6.75;;;;;23.35;45.61;101154.56;4942358;28;47941;-82
2021/07/08 04:13:45;;;;;;;;;6.00;6.00;;;;;23.33;45.11;101164.41;4960051;28;45405;-84
2021/07/08 04:16:10;;;;;;;;;7.00;6.25;;;;;23.31;44.86;101160.94;4957638;28;56013;-82
2021/07/08 04:18:36;;;;;;;;;8.00;5.75;;;;;23.28;45.47;101155.72;4970498;28;57342;-81
2021/07/08 04:21:02;;;;;;;;;7.00;6.00;;;;;23.30;45.23;101159.22;4959833;28;53458;-81
2021/07/08 04:23:27;;;;;;;;;5.50;5.50;;;;;23.30;45.64;101164.53;4952314;28;45359;-83
2021/07/08 04:25:52;;;;;;;;;6.00;5.00;;;;;23.29;45.22;101158.34;4950745;28;45445;-79
2021/07/08 04:28:18;;;;;;;;;8.00;6.75;;;;;23.29;45.28;101160.13;4964710;28;45253;-81
2021/07/08 04:30:44;;;;;;;;;5.00;5.00;;;;;23.27;45.37;101164.63;4946627;28;45769;-82
2021/07/08 04:33:46;;;;;;;;;4.75;4.75;;;;;23.25;46.03;101158.50;4940694;28;45793;-82
2021/07/08 04:36:12;;;;;;;;;4.25;4.25;;;;;23.24;45.46;101154.09;4959531;28;45472;-74
2021/07/08 04:38:40;;;;;;;;;8.50;6.00;;;;;23.22;45.69;101158.63;4961286;28;45380;-78
2021/07/08 04:41:05;;;;;;;;;5.25;5.00;;;;;23.21;45.82;101152.44;4940704;28;45189;-76
2021/07/08 04:43:31;;;;;;;;;7.00;6.00;;;;;23.24;45.62;101156.75;4969507;28;45590;-76
2021/07/08 04:45:56;;;;;;;;;7.00;6.00;;;;;23.23;46.17;101152.34;4959770;28;45933;-73
2021/07/08 04:48:22;;;;;;;;;6.75;5.00;;;;;23.21;46.07;101154.22;4948111;28;60555;-82
2021/07/08 04:50:47;;;;;;;;;8.00;4.75;;;;;23.21;45.87;101151.56;4956558;28;45300;-79
2021/07/08 04:53:16;;;;;;;;;6.50;5.50;;;;;23.24;45.95;101154.97;4940368;28;45604;-76
2021/07/08 04:55:44;;;;;;;;;6.00;6.00;;;;;23.24;46.95;101159.41;4939925;28;47042;-82
2021/07/08 04:58:10;;;;;;;;;9.00;7.00;;;;;23.31;46.95;101166.28;4940390;28;45279;-82
2021/07/08 05:00:35;;;;;;;;;4.25;4.25;;;;;23.36;46.60;101174.94;4943568;28;45206;-81
